Time;durP1;ratioP1;P1;durP2;ratioP2;P2;SDS_P1;SDS_P2;PMS_P1;PMS_P2;Temp;Humidity;BMP_temperature;BMP_pressure;BME280_temperature;BME280_humidity;BME280_pressure;Samples;Min_cycle;Max_cycle;Signal;HPM_P1;HPM_P2
2020/12/23 00:01:47;;;;;;;4.78;2.25;;;13.60;99.90;;;12.90;100.00;101066.69;4105295;29;20032;-71
2020/12/23 00:03:48;;;;;;;6.70;2.05;;;13.60;99.90;;;13.02;100.00;101068.03;4104809;29;20059;-72
2020/12/23 00:05:49;;;;;;;8.95;2.05;;;13.60;99.90;;;13.01;100.00;101076.94;4122418;28;20031;-72
2020/12/23 00:07:50;;;;;;;6.55;2.15;;;13.60;99.90;;;13.02;100.00;101062.72;4104993;29;20031;-72
2020/12/23 00:09:51;;;;;;;13.55;2.25;;;13.60;99.90;;;13.01;100.00;101061.88;4121019;28;20074;-71
2020/12/23 00:11:55;;;;;;;8.02;2.10;;;13.60;99.90;;;12.98;100.00;101056.09;4105113;29;20035;-72
2020/12/23 00:13:56;;;;;;;8.50;2.15;;;13.60;99.90;;;12.95;100.00;101059.91;4104984;28;20066;-72
2020/12/23 00:15:57;;;;;;;7.32;1.77;;;13.60;99.90;;;13.00;100.00;101065.53;4105227;29;20035;-71
2020/12/23 00:17:57;;;;;;;6.53;2.03;;;13.60;99.90;;;12.98;100.00;101059.56;4122203;28;20097;-71
2020/12/23 00:19:58;;;;;;;6.45;2.42;;;13.60;99.90;;;12.94;100.00;101060.88;4104829;29;20031;-72
2020/12/23 00:22:00;;;;;;;8.38;2.20;;;13.60;99.90;;;13.02;100.00;101063.53;4122147;28;20023;-72
2020/12/23 00:24:01;;;;;;;8.32;2.72;;;13.60;99.90;;;13.00;100.00;101062.88;4104903;29;20038;-72
2020/12/23 00:26:05;;;;;;;10.50;2.63;;;13.60;99.90;;;12.96;100.00;101064.19;4121020;28;20505;-71
2020/12/23 00:28:06;;;;;;;;;;;13.60;99.90;;;12.95;100.00;101057.25;4105609;28;20054;-71
2020/12/23 00:30:08;;;;;;;11.48;2.50;;;13.60;99.90;;;12.94;100.00;101049.44;4121892;28;19910;-72
2020/12/23 00:32:08;;;;;;;6.30;2.00;;;13.60;99.90;;;12.84;100.00;101046.97;4121859;28;20031;-71
2020/12/23 00:34:09;;;;;;;4.80;2.00;;;13.60;99.90;;;12.87;100.00;101038.72;4104533;29;20058;-71
2020/12/23 00:36:16;;;;;;;7.03;2.28;;;13.60;99.90;;;12.93;100.00;101045.97;4104639;29;20027;-72
2020/12/23 00:38:17;;;;;;;9.50;2.17;;;13.60;99.90;;;12.85;100.00;101038.03;4104568;28;20055;-72
2020/12/23 00:40:18;;;;;;;11.20;3.17;;;13.60;99.90;;;12.97;100.00;101022.66;4104672;29;20023;-71
2020/12/23 00:42:22;;;;;;;13.55;2.78;;;13.60;99.90;;;12.88;100.00;101027.09;4121661;28;20097;-71
2020/12/23 00:44:24;;;;;;;7.93;2.17;;;13.60;99.90;;;12.96;100.00;101013.88;4104511;29;20035;-71
2020/12/23 00:46:25;;;;;;;9.85;2.20;;;13.60;99.90;;;13.00;100.00;101020.50;4121649;28;20090;-71
2020/12/23 00:48:26;;;;;;;7.68;2.50;;;13.60;99.90;;;12.98;100.00;101009.25;4124537;28;20037;-72
2020/12/23 00:50:27;;;;;;;13.38;2.83;;;13.60;99.90;;;12.98;100.00;101011.91;4104560;29;20042;-71
2020/12/23 00:52:28;;;;;;;8.38;2.92;;;13.60;99.90;;;12.96;100.00;101013.06;4104493;29;20136;-71
2020/12/23 00:54:28;;;;;;;9.15;2.63;;;13.60;99.90;;;12.95;100.00;101008.75;4121413;28;20026;-71
2020/12/23 00:56:29;;;;;;;7.32;2.92;;;13.60;99.90;;;13.04;100.00;101005.13;4121600;28;20027;-71
2020/12/23 00:58:30;;;;;;;7.78;2.72;;;13.60;99.90;;;12.96;100.00;100991.88;4104439;29;20122;-71
2020/12/23 01:00:31;;;;;;;11.18;3.53;;;13.60;99.90;;;12.91;100.00;100987.06;4104452;29;20090;-71
2020/12/23 01:02:32;;;;;;;15.65;4.78;;;13.60;99.90;;;12.91;100.00;100984.41;4121550;28;20081;-71
2020/12/23 01:04:33;;;;;;;9.23;2.70;;;13.60;99.90;;;12.93;100.00;100990.38;4104216;29;20042;-71
2020/12/23 01:06:34;;;;;;;6.25;2.20;;;13.60;99.90;;;12.88;100.00;100979.44;4104441;28;20070;-72
2020/12/23 01:08:36;;;;;;;12.20;2.67;;;13.60;99.90;;;13.00;100.00;100980.78;4120281;28;20070;-71
2020/12/23 01:10:37;;;;;;;12.68;3.00;;;13.60;99.90;;;13.13;100.00;100975.84;4121456;28;20026;-71
2020/12/23 01:12:38;;;;;;;6.57;1.92;;;13.70;99.90;;;13.10;100.00;100985.94;4104367;29;20035;-71
2020/12/23 01:14:39;;;;;;;6.47;2.05;;;13.70;99.90;;;13.18;100.00;100989.41;4104248;28;20031;-71
2020/12/23 01:16:39;;;;;;;8.48;3.25;;;13.70;99.90;;;13.09;100.00;100995.72;4104220;28;20055;-71
2020/12/23 01:18:40;;;;;;;8.60;2.13;;;13.80;99.90;;;13.03;100.00;100984.91;4121039;28;20035;-71
2020/12/23 01:20:41;;;;;;;8.68;2.65;;;13.80;99.90;;;12.96;100.00;100974.16;4121519;28;20023;-72
2020/12/23 01:22:42;;;;;;;8.55;1.90;;;13.70;99.90;;;13.08;100.00;100972.84;4121401;28;20026;-72
2020/12/23 01:24:43;;;;;;;9.38;1.98;;;13.70;99.90;;;13.04;100.00;100966.22;4121275;28;20035;-72
2020/12/23 01:26:44;;;;;;;11.95;2.35;;;13.80;99.90;;;13.02;100.00;100960.25;4104089;29;20419;-72
2020/12/23 01:28:46;;;;;;;7.93;2.25;;;13.70;99.90;;;12.98;100.00;100958.09;4121344;28;20034;-72
2020/12/23 01:30:47;;;;;;;6.97;1.92;;;13.70;99.90;;;12.95;100.00;100955.78;4088113;29;20031;-72
2020/12/23 01:32:47;;;;;;;7.20;1.90;;;13.70;99.90;;;12.94;100.00;100951.47;4121161;28;20034;-72
2020/12/23 01:34:48;;;;;;;6.13;1.67;;;13.70;99.90;;;12.91;100.00;100954.47;4103767;29;20023;-72
2020/12/23 01:36:50;;;;;;;4.30;2.05;;;13.70;99.90;;;12.84;100.00;100954.31;4104046;29;20027;-72
2020/12/23 01:38:51;;;;;;;5.75;1.55;;;13.70;99.90;;;12.87;100.00;100947.84;4087993;29;20147;-72
2020/12/23 01:41:00;;;;;;;7.60;2.13;;;13.70;99.90;;;12.91;100.00;100943.88;4103866;29;20031;-72
2020/12/23 01:43:01;;;;;;;7.03;2.05;;;13.70;99.90;;;12.93;100.00;100937.41;4103802;28;20039;-72
2020/12/23 01:45:04;;;;;;;7.03;2.10;;;13.70;99.90;;;12.91;100.00;100927.97;4121027;28;20031;-72
2020/12/23 01:47:11;;;;;;;8.43;1.60;;;13.70;99.90;;;12.84;100.00;100934.94;4121007;28;20045;-72
2020/12/23 01:49:12;;;;;;;5.50;1.60;;;13.70;99.90;;;12.87;100.00;100934.63;4121683;28;20054;-72
2020/12/23 01:51:13;;;;;;;3.42;1.92;;;13.70;99.90;;;12.96;100.00;100931.78;4120622;28;20105;-72
2020/12/23 01:53:16;;;;;;;3.38;1.50;;;13.70;99.90;;;12.91;100.00;100944.69;4103768;29;20526;-72
2020/12/23 01:55:17;;;;;;;2.03;1.45;;;13.70;99.90;;;13.00;100.00;100933.09;4103601;29;20037;-72
2020/12/23 01:57:18;;;;;;;4.22;1.40;;;13.70;99.90;;;12.99;100.00;100933.28;4103729;29;20118;-72
2020/12/23 01:59:19;;;;;;;6.75;1.60;;;13.70;99.90;;;12.97;100.00;100938.75;4120554;28;20553;-71
2020/12/23 02:01:22;;;;;;;5.72;1.50;;;13.70;99.90;;;12.99;100.00;100934.09;4103609;29;20061;-72
2020/12/23 02:03:23;;;;;;;3.95;1.40;;;13.70;99.90;;;12.96;100.00;100937.06;4103294;28;20031;-71
2020/12/23 02:05:23;;;;;;;4.70;1.35;;;13.70;99.90;;;12.95;100.00;100935.44;4120580;28;20058;-72
2020/12/23 02:07:26;;;;;;;4.35;1.30;;;13.70;99.90;;;13.07;100.00;100933.28;4103328;29;20039;-72
2020/12/23 02:09:28;;;;;;;4.70;1.30;;;13.70;99.90;;;12.97;100.00;100933.44;4103647;29;20585;-72
2020/12/23 02:11:30;;;;;;;3.45;1.10;;;13.80;99.90;;;13.02;100.00;100943.56;4120476;28;20039;-72
2020/12/23 02:13:43;;;;;;;4.38;1.42;;;13.70;99.90;;;13.05;100.00;100943.22;4119268;28;20046;-72
2020/12/23 02:15:44;;;;;;;5.18;1.60;;;13.80;99.90;;;13.06;100.00;100929.78;4104111;28;20031;-72
2020/12/23 02:17:47;;;;;;;2.80;1.40;;;13.80;99.90;;;13.00;100.00;100922.53;4103136;28;20031;-72
2020/12/23 02:19:51;;;;;;;4.80;1.98;;;13.80;99.90;;;12.98;100.00;100921.88;4118776;28;20038;-71
2020/12/23 02:21:53;;;;;;;4.43;1.80;;;13.80;99.90;;;13.07;100.00;100920.03;4103488;28;20027;-72
2020/12/23 02:23:54;;;;;;;5.35;1.50;;;13.80;99.90;;;12.95;100.00;100924.03;4103181;28;20110;-72
2020/12/23 02:25:56;;;;;;;5.68;1.63;;;13.70;99.90;;;12.89;100.00;100914.94;4103350;28;20090;-71
2020/12/23 02:27:57;;;;;;;3.30;1.50;;;13.70;99.90;;;12.94;100.00;100917.06;4103220;28;20486;-72
2020/12/23 02:30:00;;;;;;;4.15;1.23;;;13.70;99.90;;;12.90;100.00;100921.88;4120225;28;20037;-72
2020/12/23 02:32:00;;;;;;;4.15;1.20;;;13.70;99.90;;;12.92;100.00;100916.41;4103005;29;20031;-72
2020/12/23 02:34:01;;;;;;;5.90;1.52;;;13.70;99.90;;;12.94;100.00;100930.28;4119936;28;20102;-72
2020/12/23 02:36:02;;;;;;;6.32;1.83;;;13.70;99.90;;;12.93;100.00;100921.53;4102941;29;20019;-72
2020/12/23 02:38:03;;;;;;;2.50;1.25;;;13.70;99.90;;;12.95;100.00;100919.56;4118937;28;20065;-72
2020/12/23 02:40:06;;;;;;;6.18;1.80;;;13.70;99.90;;;12.99;100.00;100930.66;4120262;28;20030;-71
2020/12/23 02:42:09;;;;;;;4.55;1.65;;;13.70;99.90;;;12.98;100.00;100935.09;4119755;28;20042;-71
2020/12/23 02:44:10;;;;;;;3.63;1.42;;;13.70;99.90;;;12.97;100.00;100916.72;4119989;28;20054;-71
2020/12/23 02:46:11;;;;;;;3.75;1.17;;;13.80;99.90;;;12.91;100.00;100907.63;4102869;29;20542;-71
2020/12/23 02:48:11;;;;;;;2.20;1.45;;;13.70;99.90;;;12.90;100.00;100921.06;4123181;28;20023;-71
2020/12/23 02:50:12;;;;;;;2.92;1.60;;;13.60;99.90;;;12.92;100.00;100914.59;4120109;28;20026;-71
2020/12/23 02:52:13;;;;;;;4.95;1.77;;;13.70;99.90;;;12.85;100.00;100912.75;4102689;29;20475;-71
2020/12/23 02:54:14;;;;;;;3.97;1.60;;;13.70;99.90;;;12.89;100.00;100911.44;4119945;28;20109;-71
2020/12/23 02:56:15;;;;;;;4.97;2.13;;;13.70;99.90;;;12.80;100.00;100899.22;4119990;28;20038;-71
2020/12/23 02:58:16;;;;;;;4.13;1.83;;;13.70;99.90;;;12.77;100.00;100901.19;4120050;28;20372;-71
2020/12/23 03:00:17;;;;;;;3.40;1.80;;;13.60;99.90;;;12.85;100.00;100900.34;4102786;29;20050;-71
2020/12/23 03:02:18;;;;;;;3.95;1.60;;;13.60;99.90;;;12.84;100.00;100896.06;4102716;28;20113;-71
2020/12/23 03:04:19;;;;;;;3.38;1.38;;;13.60;99.90;;;12.80;100.00;100889.44;4102552;29;20043;-71
2020/12/23 03:06:20;;;;;;;2.40;1.10;;;13.60;99.90;;;12.78;100.00;100880.84;4086546;29;20035;-71
2020/12/23 03:08:20;;;;;;;3.28;1.30;;;13.60;99.90;;;12.84;100.00;100885.50;4119420;28;20491;-71
2020/12/23 03:10:21;;;;;;;3.10;1.40;;;13.60;99.90;;;12.84;100.00;100880.19;4119512;28;20030;-71
2020/12/23 03:12:22;;;;;;;4.38;1.45;;;13.60;99.90;;;12.80;100.00;100875.38;4119252;28;20042;-71
2020/12/23 03:14:23;;;;;;;2.88;1.20;;;13.60;99.90;;;12.82;100.00;100878.69;4119506;28;20054;-71
2020/12/23 03:16:24;;;;;;;2.67;1.20;;;13.60;99.90;;;12.87;100.00;100868.44;4102178;29;20035;-71
2020/12/23 03:18:25;;;;;;;1.55;1.00;;;13.60;99.90;;;12.73;100.00;100862.81;4102031;29;20027;-71
2020/12/23 03:20:26;;;;;;;3.58;1.05;;;13.60;99.90;;;12.73;100.00;100867.28;4102030;29;20495;-71
2020/12/23 03:22:27;;;;;;;3.72;1.15;;;13.60;99.90;;;12.78;100.00;100864.97;4118206;28;20030;-71
2020/12/23 03:24:28;;;;;;;2.97;1.10;;;13.60;99.90;;;12.81;100.00;100864.63;4086289;29;20122;-72
2020/12/23 03:26:28;;;;;;;4.35;1.40;;;13.60;99.90;;;12.78;100.00;100854.38;4119189;28;20506;-71
2020/12/23 03:28:30;;;;;;;3.47;1.00;;;13.60;99.90;;;12.84;100.00;100859.00;4119134;28;20046;-71
2020/12/23 03:30:31;;;;;;;4.00;1.15;;;13.60;99.90;;;12.80;100.00;100846.25;4102035;28;20118;-71
2020/12/23 03:32:33;;;;;;;11.02;1.58;;;13.60;99.90;;;12.88;100.00;100848.88;4104520;28;20035;-71
2020/12/23 03:34:34;;;;;;;4.40;1.55;;;13.60;99.90;;;12.81;100.00;100848.75;4105228;28;20066;-71
2020/12/23 03:36:35;;;;;;;5.07;1.85;;;13.60;99.90;;;12.80;100.00;100835.66;4122516;28;20039;-71
2020/12/23 03:38:36;;;;;;;9.00;1.77;;;13.60;99.90;;;12.71;100.00;100833.03;4105542;29;20027;-71
2020/12/23 03:40:38;;;;;;;4.20;1.88;;;13.60;99.90;;;12.84;100.00;100827.25;4122514;28;20501;-71
2020/12/23 03:42:39;;;;;;;3.40;1.35;;;13.60;99.90;;;12.80;100.00;100819.78;4121072;28;20055;-71
2020/12/23 03:44:40;;;;;;;7.93;1.90;;;13.60;99.90;;;12.90;100.00;100831.88;4122441;28;20045;-72
2020/12/23 03:46:41;;;;;;;10.27;1.88;;;13.60;99.90;;;12.81;100.00;100806.41;4122578;28;20494;-71
2020/12/23 03:48:41;;;;;;;9.88;2.00;;;13.60;99.90;;;12.87;100.00;100811.03;4123707;28;20037;-71
2020/12/23 03:50:43;;;;;;;10.25;2.03;;;13.70;99.90;;;12.91;100.00;100808.84;4122415;28;20110;-71
2020/12/23 03:52:44;;;;;;;12.25;2.33;;;13.60;99.90;;;12.88;100.00;100802.06;4105072;29;20542;-71
2020/12/23 03:54:45;;;;;;;10.85;2.53;;;13.70;99.90;;;12.84;100.00;100805.22;4122371;28;20043;-71
2020/12/23 03:56:46;;;;;;;10.25;2.00;;;13.60;99.90;;;12.87;100.00;100810.19;4105253;29;20488;-71
2020/12/23 03:58:47;;;;;;;11.13;2.25;;;13.60;99.90;;;12.81;100.00;100801.09;4105123;29;20038;-71
2020/12/23 04:00:48;;;;;;;10.05;1.90;;;13.70;99.90;;;12.84;100.00;100794.66;4122182;28;20403;-71
2020/12/23 04:02:49;;;;;;;11.57;2.05;;;13.60;99.90;;;12.78;100.00;100796.16;4105013;29;20059;-71
2020/12/23 04:04:49;;;;;;;9.38;2.20;;;13.60;99.90;;;12.82;100.00;100784.22;4122025;28;20030;-71
2020/12/23 04:06:50;;;;;;;8.82;1.92;;;13.60;99.90;;;12.90;100.00;100792.16;4104997;29;20034;-71
2020/12/23 04:08:51;;;;;;;8.50;1.98;;;13.60;99.90;;;12.86;100.00;100788.19;4104849;29;20110;-71
2020/12/23 04:10:52;;;;;;;7.10;1.98;;;13.60;99.90;;;12.87;100.00;100795.13;4122219;28;20038;-71
2020/12/23 04:12:53;;;;;;;10.50;1.98;;;13.60;99.90;;;12.86;100.00;100792.66;4122113;28;20114;-71
2020/12/23 04:14:54;;;;;;;10.13;1.77;;;13.60;99.90;;;12.82;100.00;100792.16;4104912;29;20035;-71
2020/12/23 04:16:55;;;;;;;6.85;1.83;;;13.60;99.90;;;12.81;100.00;100787.03;4121927;28;20513;-71
2020/12/23 04:18:55;;;;;;;10.90;2.08;;;13.60;99.90;;;12.83;100.00;100785.88;4104480;29;20039;-72
2020/12/23 04:20:56;;;;;;;9.10;2.42;;;13.60;99.90;;;12.84;100.00;100769.00;4122131;28;20042;-72
2020/12/23 04:22:57;;;;;;;9.48;1.80;;;13.60;99.90;;;12.81;100.00;100764.03;4121928;28;20058;-71
2020/12/23 04:25:05;;;;;;;7.38;1.80;;;13.60;99.90;;;12.86;100.00;100764.34;4104730;29;20023;-71
2020/12/23 04:27:06;;;;;;;7.72;1.70;;;13.60;99.90;;;12.84;100.00;100768.16;4121993;28;20050;-72
2020/12/23 04:29:07;;;;;;;7.63;1.80;;;13.50;99.90;;;12.84;100.00;100757.59;4104748;29;20027;-72
2020/12/23 04:31:07;;;;;;;12.07;1.65;;;13.50;99.90;;;12.89;100.00;100763.19;4104470;29;20394;-71
2020/12/23 04:33:08;;;;;;;7.78;2.10;;;13.50;99.90;;;12.90;100.00;100770.13;4104207;29;20027;-71
2020/12/23 04:35:09;;;;;;;10.88;3.40;;;13.50;99.90;;;12.80;100.00;100766.84;4121865;28;20058;-71
2020/12/23 04:37:10;;;;;;;10.77;2.00;;;13.50;99.90;;;12.87;100.00;100763.38;4104527;29;20105;-71
2020/12/23 04:39:11;;;;;;;12.23;1.95;;;13.50;99.90;;;12.85;100.00;100765.34;4104501;29;20027;-71
2020/12/23 04:41:12;;;;;;;9.27;3.03;;;13.60;99.90;;;12.84;100.00;100768.16;4104152;29;20031;-71
2020/12/23 04:43:13;;;;;;;10.00;2.97;;;13.50;99.90;;;12.87;100.00;100773.97;4103934;28;20122;-72
2020/12/23 04:45:17;;;;;;;14.02;2.35;;;13.60;99.90;;;12.78;100.00;100772.31;4104312;28;20114;-71
2020/12/23 04:47:26;;;;;;;13.53;2.30;;;13.60;99.90;;;12.89;100.00;100771.13;4104472;28;20023;-72
2020/12/23 04:49:26;;;;;;;9.48;2.35;;;13.50;99.90;;;12.83;100.00;100764.69;4121097;28;20094;-72
2020/12/23 04:51:36;;;;;;;7.45;1.90;;;13.60;99.90;;;12.84;100.00;100765.53;4121476;28;20035;-72
2020/12/23 04:53:37;;;;;;;14.88;2.25;;;13.50;99.90;;;12.75;100.00;100768.16;4104314;28;20479;-72
2020/12/23 04:55:41;;;;;;;12.25;2.55;;;13.60;99.90;;;12.81;100.00;100761.41;4104196;29;20113;-72
2020/12/23 04:57:43;;;;;;;12.27;2.90;;;13.60;99.90;;;12.80;100.00;100757.09;4088615;29;20032;-71
2020/12/23 04:59:45;;;;;;;13.23;2.92;;;13.60;99.90;;;12.69;100.00;100746.88;4104298;28;20034;-72
2020/12/23 05:01:45;;;;;;;11.32;2.95;;;13.50;99.90;;;12.70;100.00;100745.84;4121014;28;20101;-72
2020/12/23 05:03:47;;;;;;;12.18;2.10;;;13.50;99.90;;;12.76;100.00;100753.94;4121070;28;20031;-72
2020/12/23 05:05:47;;;;;;;11.48;3.13;;;13.50;99.90;;;12.66;100.00;100733.97;4121008;28;20037;-72
2020/12/23 05:07:49;;;;;;;12.20;2.03;;;13.50;99.90;;;12.67;100.00;100735.59;4103863;29;20454;-71
2020/12/23 05:09:51;;;;;;;10.55;2.75;;;13.40;99.90;;;12.73;100.00;100745.53;4103941;28;20089;-72
2020/12/23 05:11:54;;;;;;;7.93;2.38;;;13.50;99.90;;;12.66;100.00;100755.16;4119863;28;20038;-72
2020/12/23 05:13:56;;;;;;;14.07;2.95;;;13.40;99.90;;;12.64;100.00;100751.81;4087912;29;20603;-72
2020/12/23 05:15:57;;;;;;;11.30;2.28;;;13.40;99.90;;;12.71;100.00;100742.22;4121243;28;20027;-72
2020/12/23 05:18:01;;;;;;;15.23;3.33;;;13.40;99.90;;;12.70;100.00;100743.22;4120798;28;20034;-72
2020/12/23 05:20:06;;;;;;;8.07;2.00;;;13.40;99.90;;;12.69;100.00;100741.59;4087895;29;20027;-72
2020/12/23 05:22:08;;;;;;;15.20;2.78;;;13.50;99.90;;;12.59;100.00;100735.63;4103846;28;20451;-72
2020/12/23 05:24:10;;;;;;;7.57;2.17;;;13.50;99.90;;;12.62;100.00;100738.78;4119917;28;20090;-72
2020/12/23 05:26:13;;;;;;;12.52;2.83;;;13.40;99.90;;;12.53;100.00;100726.56;4103510;28;20043;-72
2020/12/23 05:28:16;;;;;;;10.38;2.55;;;13.40;99.90;;;12.61;100.00;100726.53;4103713;28;20032;-72
2020/12/23 05:30:20;;;;;;;13.15;2.45;;;13.40;99.90;;;12.57;100.00;100714.63;4119401;28;20037;-72
2020/12/23 05:32:22;;;;;;;11.60;3.13;;;13.40;99.90;;;12.49;100.00;100711.19;4120761;28;20113;-72
2020/12/23 05:34:25;;;;;;;17.45;3.78;;;13.40;99.90;;;12.58;100.00;100720.75;4103305;29;20134;-72
2020/12/23 05:36:26;;;;;;;7.45;3.05;;;13.30;99.90;;;12.63;100.00;100723.72;4103230;29;20105;-72
2020/12/23 05:38:31;;;;;;;8.27;2.55;;;13.40;99.90;;;12.61;100.00;100725.69;4087643;29;20555;-71
2020/12/23 05:40:32;;;;;;;8.05;2.78;;;13.40;99.90;;;12.56;100.00;100715.63;4103537;28;20034;-72
2020/12/23 05:42:33;;;;;;;9.95;2.25;;;13.40;99.90;;;12.62;100.00;100711.47;4120607;28;20042;-71
2020/12/23 05:44:33;;;;;;;17.10;3.28;;;13.40;99.90;;;12.60;100.00;100711.63;4103912;29;20074;-71
2020/12/23 05:46:38;;;;;;;11.77;2.88;;;13.40;99.90;;;12.66;100.00;100720.75;4103883;29;20396;-72
2020/12/23 05:48:42;;;;;;;8.90;2.92;;;13.40;99.90;;;12.67;100.00;100698.56;4103623;28;20027;-72
2020/12/23 05:50:44;;;;;;;10.65;2.40;;;13.40;99.90;;;12.67;100.00;100688.81;4103821;29;20091;-72
2020/12/23 05:52:46;;;;;;;18.27;3.42;;;13.40;99.90;;;12.66;100.00;100692.44;4120672;28;20035;-71
2020/12/23 05:54:53;;;;;;;12.82;4.20;;;13.40;99.90;;;12.64;100.00;100672.44;4117995;28;20027;-71
2020/12/23 05:56:54;;;;;;;14.77;2.90;;;13.40;99.90;;;12.69;100.00;100680.72;4103815;28;20574;-72
2020/12/23 05:58:55;;;;;;;13.48;3.00;;;13.40;99.90;;;12.73;100.00;100682.00;4120762;28;20062;-71
2020/12/23 06:01:02;;;;;;;11.88;2.00;;;13.40;99.90;;;12.68;100.00;100690.47;4120459;28;20022;-72
2020/12/23 06:03:21;;;;;;;11.43;2.45;;;13.40;99.90;;;12.72;100.00;100690.94;4087649;29;20024;-72
2020/12/23 06:05:29;;;;;;;10.07;3.40;;;13.40;99.90;;;12.67;100.00;100687.97;4103326;29;20039;-72
2020/12/23 06:07:31;;;;;;;9.93;2.92;;;13.40;99.90;;;12.57;100.00;100706.69;4087385;29;20059;-72
2020/12/23 06:09:47;;;;;;;9.60;2.60;;;13.40;99.90;;;12.55;100.00;100705.22;4087460;29;20028;-71
2020/12/23 06:11:55;;;;;;;9.05;3.00;;;13.40;99.90;;;12.48;100.00;100691.03;4120333;28;20030;-72
2020/12/23 06:14:21;;;;;;;11.75;2.33;;;13.40;99.90;;;12.51;100.00;100682.75;4118974;28;20433;-73
2020/12/23 06:16:52;;;;;;;9.57;2.75;;;13.40;99.90;;;12.51;100.00;100683.56;4103811;28;20427;-72
2020/12/23 06:18:56;;;;;;;10.02;2.58;;;13.40;99.90;;;12.57;100.00;100687.34;4097545;28;20031;-73
2020/12/23 06:21:02;;;;;;;9.80;2.80;;;13.40;99.90;;;12.59;100.00;100691.47;4101141;28;20027;-74
2020/12/23 06:23:03;;;;;;;9.43;3.53;;;13.40;99.90;;;12.61;100.00;100684.19;4103275;28;20038;-74
2020/12/23 06:25:04;;;;;;;13.95;2.92;;;13.40;99.90;;;12.63;100.00;100686.69;4105209;28;20046;-73
2020/12/23 06:27:10;;;;;;;9.40;2.47;;;13.40;99.90;;;12.65;100.00;100692.63;4116714;28;20054;-73
2020/12/23 06:29:18;;;;;;;15.40;3.33;;;13.40;99.90;;;12.57;100.00;100674.94;4109162;28;20562;-73
2020/12/23 06:31:19;;;;;;;11.60;3.17;;;13.40;99.90;;;12.57;100.00;100682.06;4102881;28;20035;-73
2020/12/23 06:33:21;;;;;;;10.68;2.90;;;13.40;99.90;;;12.63;100.00;100657.56;4102389;28;20106;-73
2020/12/23 06:35:23;;;;;;;9.45;2.45;;;13.40;99.90;;;12.56;100.00;100664.53;4102764;28;20038;-74
2020/12/23 06:37:31;;;;;;;14.55;3.58;;;13.40;99.90;;;12.58;100.00;100665.19;4093997;29;20094;-73
2020/12/23 06:39:38;;;;;;;13.07;2.78;;;13.40;99.90;;;12.50;100.00;100655.47;4122776;28;20026;-74
2020/12/23 06:41:39;;;;;;;13.18;3.08;;;13.40;99.90;;;12.53;100.00;100659.56;4105611;28;20039;-74
2020/12/23 06:43:58;;;;;;;11.77;3.38;;;13.30;99.90;;;12.52;100.00;100664.03;4086769;29;20062;-73
2020/12/23 06:45:58;;;;;;;11.70;3.60;;;13.40;99.90;;;12.54;100.00;100661.25;4118315;28;20031;-73
2020/12/23 06:48:16;;;;;;;11.65;2.63;;;13.40;99.90;;;12.55;100.00;100654.94;4121733;28;20085;-73
2020/12/23 06:50:26;;;;;;;17.00;3.67;;;13.40;99.90;;;12.57;100.00;100666.19;4119321;28;20034;-73
2020/12/23 06:52:27;;;;;;;23.10;4.90;;;13.40;99.90;;;12.57;100.00;100666.19;4119472;28;20128;-73
2020/12/23 06:55:06;;;;;;;14.43;2.70;;;13.30;99.90;;;12.50;100.00;100665.22;4119540;28;20031;-73
2020/12/23 06:57:07;;;;;;;10.77;3.10;;;13.30;99.90;;;12.50;100.00;100660.75;4119424;28;20085;-73
2020/12/23 06:59:08;;;;;;;12.32;2.92;;;13.30;99.90;;;12.50;100.00;100663.41;4119155;28;20438;-73
2020/12/23 07:01:17;;;;;;;22.30;4.18;;;13.30;99.90;;;12.46;100.00;100659.44;4119628;28;20038;-73
2020/12/23 07:03:19;;;;;;;14.60;3.60;;;13.30;99.90;;;12.45;100.00;100662.25;4102574;28;20065;-73
2020/12/23 07:05:22;;;;;;;19.92;4.80;;;13.30;99.90;;;12.46;100.00;100664.72;4102492;28;20027;-73
2020/12/23 07:07:34;;;;;;;19.50;4.15;;;13.30;99.90;;;12.47;100.00;100657.63;4118526;28;20038;-73
2020/12/23 07:09:35;;;;;;;15.90;3.30;;;13.20;99.90;;;12.46;100.00;100661.25;4086848;29;20521;-73
2020/12/23 07:11:37;;;;;;;16.55;5.15;;;13.20;99.90;;;12.41;100.00;100648.53;4102619;29;20043;-73
2020/12/23 07:13:39;;;;;;;20.80;4.25;;;13.20;99.90;;;12.50;100.00;100662.56;4102464;28;20074;-73
2020/12/23 07:15:43;;;;;;;19.13;3.78;;;13.30;99.90;;;12.44;100.00;100640.25;4102248;29;20118;-73
2020/12/23 07:17:46;;;;;;;19.35;3.85;;;13.20;99.90;;;12.42;100.00;100657.31;4102781;28;20034;-73
2020/12/23 07:19:47;;;;;;;17.98;3.83;;;13.20;99.90;;;12.41;100.00;100653.00;4102336;29;20087;-73
2020/12/23 07:21:49;;;;;;;23.02;4.32;;;13.20;99.90;;;12.43;100.00;100657.13;4102482;28;20036;-73
2020/12/23 07:23:53;;;;;;;25.45;4.15;;;13.20;99.90;;;12.40;100.00;100649.53;4119517;28;20055;-73
2020/12/23 07:25:59;;;;;;;14.15;4.18;;;13.20;99.90;;;12.40;100.00;100656.63;4102715;28;20170;-73
2020/12/23 07:28:03;;;;;;;17.38;3.85;;;13.20;99.90;;;12.34;100.00;100646.72;4106177;28;20026;-72
2020/12/23 07:30:09;;;;;;;23.77;4.93;;;13.20;99.90;;;12.38;100.00;100640.94;4121205;28;20034;-73
2020/12/23 07:32:11;;;;;;;23.23;4.28;;;13.20;99.90;;;12.36;100.00;100642.94;4102170;29;20495;-73
2020/12/23 07:34:12;;;;;;;27.45;4.50;;;13.10;99.90;;;12.38;100.00;100650.69;4086298;29;20031;-73
2020/12/23 07:36:13;;;;;;;22.00;4.13;;;13.20;99.90;;;12.39;100.00;100668.22;4102133;29;20031;-73
2020/12/23 07:38:16;;;;;;;21.55;4.85;;;13.20;99.90;;;12.33;100.00;100656.50;4119424;28;20031;-72
2020/12/23 07:40:17;;;;;;;22.30;4.18;;;13.20;99.90;;;12.40;100.00;100661.91;4102227;28;20034;-74
2020/12/23 07:42:20;;;;;;;29.05;4.70;;;13.20;99.90;;;12.44;100.00;100650.84;4119123;28;20051;-73
2020/12/23 07:44:23;;;;;;;19.75;4.57;;;13.20;99.90;;;12.39;100.00;100641.78;4102201;28;20046;-74
2020/12/23 07:46:23;;;;;;;19.83;4.10;;;13.20;99.90;;;12.32;100.00;100644.28;4101959;28;20042;-74
2020/12/23 07:48:28;;;;;;;18.25;4.45;;;13.20;99.90;;;12.33;99.79;100637.16;4085938;29;20027;-73
2020/12/23 07:50:36;;;;;;;23.08;5.18;;;13.20;99.90;;;12.30;99.27;100640.16;4118180;28;20123;-73
2020/12/23 07:52:36;;;;;;;19.42;4.32;;;13.10;99.90;;;12.24;99.79;100636.38;4102526;28;20102;-71
2020/12/23 07:54:37;;;;;;;15.82;3.17;;;13.10;99.90;;;12.30;99.60;100626.94;4101987;29;20399;-71
2020/12/23 07:56:39;;;;;;;22.10;4.65;;;13.10;99.90;;;12.33;99.35;100642.44;4085977;29;20072;-70
2020/12/23 07:58:43;;;;;;;15.07;3.88;;;13.10;99.90;;;12.22;99.86;100633.03;4119248;28;20027;-70
2020/12/23 08:00:44;;;;;;;22.88;5.63;;;13.10;99.90;;;12.29;99.20;100630.56;4119191;28;20058;-70
2020/12/23 08:02:46;;;;;;;19.38;4.25;;;13.10;99.90;;;12.34;99.34;100633.50;4118709;28;20050;-73
2020/12/23 08:04:47;;;;;;;16.63;3.50;;;13.10;99.90;;;12.25;99.95;100629.22;4102003;29;20521;-73
2020/12/23 08:06:48;;;;;;;18.30;4.70;;;13.10;99.90;;;12.19;99.99;100621.00;4117628;28;20035;-72
2020/12/23 08:08:50;;;;;;;24.13;4.82;;;13.00;99.90;;;12.31;100.00;100637.31;4119142;28;20027;-72
2020/12/23 08:10:50;;;;;;;22.35;5.05;;;13.10;99.90;;;12.32;100.00;100638.16;4119041;28;20502;-73
2020/12/23 08:13:03;;;;;;;22.42;4.50;;;13.10;99.90;;;12.34;100.00;100636.16;4119106;28;20031;-73
2020/12/23 08:15:14;;;;;;;16.20;4.93;;;13.10;99.90;;;12.32;100.00;100646.09;4102646;28;20086;-73
2020/12/23 08:17:22;;;;;;;25.42;5.50;;;13.10;99.90;;;12.19;100.00;100642.16;4103329;28;20415;-70
2020/12/23 08:19:23;;;;;;;24.02;4.47;;;13.10;99.90;;;12.10;100.00;100644.97;4103182;28;20082;-70
2020/12/23 08:21:26;;;;;;;16.50;4.43;;;13.00;99.90;;;11.93;100.00;100653.91;4120526;28;20498;-70
2020/12/23 08:23:27;;;;;;;16.10;4.28;;;12.90;99.90;;;12.01;100.00;100665.31;4121427;28;20034;-70